Main page
METAR-TAF:

METAR-TAF

Airports :

Jyväskylä Airport

Jyväskylä, Finland

latitude: 62-24N, longitude: 025-41E, elevation: 141 m

Current weather observation

The report was made 39 minutes ago, at 15:50 UTC
Wind 5 kt from the Southwest, varying between South and West
Temperature 18°C
Humidity 42%
Pressure 1014 hPa
Visibility 10 km or more
no clouds below 1500 m and no cumulonimbus

METAR: EFJY 151550Z AUTO 23005KT 190V260 CAVOK 18/05 Q1014

Time: 19:29 (16:29 UTC)

Forecast

The report was made 1 hour and 59 minutes ago, at 14:30 UTC
Forecast valid from 15 at 15 UTC to 16 at 15 UTC
Wind 4 kt from the West
Visibility 10 km or more
no clouds below 1500 m and no cumulonimbus
Temporary
from 15 at 15 UTC to 15 at 17 UTC
Few clouds at a height of 5000 ft, Cumulonimbus.
Becoming
from 16 at 08 UTC to 16 at 10 UTC
Wind 10 kt from the South

TAF: EFJY 151430Z 1515/1615 28004KT CAVOK TEMPO 1515/1517 FEW050CB BECMG 1608/1610 18010KT

Weather observations and forecasts of more than 4000 airports (METAR and TAF reports).

The available stations are represented by yellow and red dots on the map.

Hover mouse over dot to see the name of the station.

Then click to see weather observations and forecasts.

To change the map : click on the green buttons with a black cross to zoom in, on the green button with a dash to zoom out, or on the green arrows for adjacent maps.


METAR-TAF: